Time;durP1;ratioP1;P1;durP2;ratioP2;P2;SDS_P1;SDS_P2;PMS_P1;PMS_P2;Temp;Humidity;BMP_temperature;BMP_pressure;BME280_temperature;BME280_humidity;BME280_pressure;Samples;Min_cycle;Max_cycle;Signal;HPM_P1;HPM_P2
2022/07/03 00:01:30;;;;;;;;;;;16.60;99.90;;;;;;4998082;28;20752;-70
2022/07/03 00:03:57;;;;;;;;;;;16.60;99.90;;;;;;4999483;28;19932;-70
2022/07/03 00:06:25;;;;;;;;;;;16.60;99.90;;;;;;4994979;28;20469;-70
2022/07/03 00:08:52;;;;;;;;;;;16.50;99.90;;;;;;5001989;28;20056;-71
2022/07/03 00:11:19;;;;;;;;;;;16.50;99.90;;;;;;5000287;28;20312;-71
2022/07/03 00:13:45;;;;;;;;;;;16.60;99.90;;;;;;4999284;28;19985;-71
2022/07/03 00:16:12;;;;;;;;;;;16.50;99.90;;;;;;5000950;28;20379;-71
2022/07/03 00:18:39;;;;;;;;;;;16.60;99.90;;;;;;5002008;28;20015;-70
2022/07/03 00:21:07;;;;;;;;;;;16.60;99.90;;;;;;4998774;28;20567;-70
2022/07/03 00:23:39;;;;;;;;;;;16.60;99.90;;;;;;5001640;28;19934;-71
2022/07/03 00:26:05;;;;;;;;;;;16.70;99.90;;;;;;4999790;28;19932;-71
2022/07/03 00:28:33;;;;;;;;;;;16.60;99.90;;;;;;5001649;28;19926;-70
2022/07/03 00:31:00;;;;;;;;;;;16.50;99.90;;;;;;4998347;28;19932;-71
2022/07/03 00:33:27;;;;;;;;;;;16.60;99.90;;;;;;5000927;28;19971;-70
2022/07/03 00:35:55;;;;;;;;;;;16.60;99.90;;;;;;4996989;28;19933;-72
2022/07/03 00:38:22;;;;;;;;;;;16.60;99.90;;;;;;4998834;28;20020;-71
2022/07/03 00:40:50;;;;;;;;;;;16.60;99.90;;;;;;4998161;28;19926;-71
2022/07/03 00:43:17;;;;;;;;;;;16.60;99.90;;;;;;4999199;28;20012;-71
2022/07/03 00:45:47;;;;;;;;;;;16.60;99.90;;;;;;4997608;28;19930;-71
2022/07/03 00:48:15;;;;;;;;;;;16.60;99.90;;;;;;4991189;28;20009;-71
2022/07/03 00:50:45;;;;;;;;;;;16.60;99.90;;;;;;4996458;28;20300;-71
2022/07/03 00:53:13;;;;;;;;;;;16.60;99.90;;;;;;4994863;28;19941;-70
2022/07/03 00:55:41;;;;;;;;;;;16.60;99.90;;;;;;4999261;28;20452;-70
2022/07/03 00:58:09;;;;;;;;;;;16.50;99.90;;;;;;4999125;28;19933;-70
2022/07/03 01:00:40;;;;;;;;;;;16.50;99.90;;;;;;4998025;28;19925;-70
2022/07/03 01:03:07;;;;;;;;;;;16.40;99.90;;;;;;4997597;28;19961;-70
2022/07/03 01:05:36;;;;;;;;;;;16.40;99.90;;;;;;4998570;28;19936;-70
2022/07/03 01:08:08;;;;;;;;;;;16.40;99.90;;;;;;4997260;28;20020;-70
2022/07/03 01:10:38;;;;;;;;;;;16.40;99.90;;;;;;4997650;28;19964;-70
2022/07/03 01:13:07;;;;;;;;;;;16.50;99.90;;;;;;5002056;28;19932;-70
2022/07/03 01:15:42;;;;;;;;;;;16.40;99.90;;;;;;4996599;28;20289;-70
2022/07/03 01:18:21;;;;;;;;;;;16.40;99.90;;;;;;5000347;28;19925;-70
2022/07/03 01:20:53;;;;;;;;;;;16.40;99.90;;;;;;4999437;28;19957;-70
2022/07/03 01:23:24;;;;;;;;;;;16.30;99.90;;;;;;4994025;28;19925;-69
2022/07/03 01:25:53;;;;;;;;;;;16.40;99.90;;;;;;4998681;28;20016;-70
2022/07/03 01:28:22;;;;;;;;;;;16.40;99.90;;;;;;5000496;28;20031;-70
2022/07/03 01:30:49;;;;;;;;;;;16.40;99.90;;;;;;4998265;28;19929;-71
2022/07/03 01:33:17;;;;;;;;;;;16.30;99.90;;;;;;5001034;28;20365;-70
2022/07/03 01:35:47;;;;;;;;;;;16.30;99.90;;;;;;4996474;28;20012;-71
2022/07/03 01:38:14;;;;;;;;;;;16.30;99.90;;;;;;4998133;28;20020;-70
2022/07/03 01:40:42;;;;;;;;;;;16.20;99.90;;;;;;4996232;28;20037;-69
2022/07/03 01:43:11;;;;;;;;;;;16.20;99.90;;;;;;4999984;28;19979;-70
2022/07/03 01:45:39;;;;;;;;;;;16.20;99.90;;;;;;4997090;28;20039;-69
2022/07/03 01:48:07;;;;;;;;;;;16.20;99.90;;;;;;5008043;28;20382;-69
2022/07/03 01:50:34;;;;;;;;;;;16.20;99.90;;;;;;4999470;28;20483;-69
2022/07/03 01:53:02;;;;;;;;;;;16.20;99.90;;;;;;4997419;28;22666;-69
2022/07/03 01:55:30;;;;;;;;;;;16.20;99.90;;;;;;4998283;28;19969;-70
2022/07/03 01:57:57;;;;;;;;;;;16.20;99.90;;;;;;4999590;28;19926;-69
2022/07/03 02:00:25;;;;;;;;;;;16.20;99.90;;;;;;4993461;28;19972;-69
2022/07/03 02:02:56;;;;;;;;;;;16.20;99.90;;;;;;4997694;28;19925;-70
2022/07/03 02:05:29;;;;;;;;;;;16.20;99.90;;;;;;4998446;28;20021;-70
2022/07/03 02:07:58;;;;;;;;;;;16.20;99.90;;;;;;4998558;28;20038;-70
2022/07/03 02:10:28;;;;;;;;;;;16.20;99.90;;;;;;4994631;28;20019;-69
2022/07/03 02:12:58;;;;;;;;;;;16.20;99.90;;;;;;4994012;28;19932;-69
2022/07/03 02:15:29;;;;;;;;;;;16.10;99.90;;;;;;4997649;28;20740;-69
2022/07/03 02:17:57;;;;;;;;;;;16.10;99.90;;;;;;4996241;28;20052;-69
2022/07/03 02:20:25;;;;;;;;;;;16.10;99.90;;;;;;4995662;28;19957;-70
2022/07/03 02:22:53;;;;;;;;;;;16.00;99.90;;;;;;4994949;28;19933;-70
2022/07/03 02:25:21;;;;;;;;;;;15.90;99.90;;;;;;4994495;28;19930;-69
2022/07/03 02:27:51;;;;;;;;;;;15.80;99.90;;;;;;4995126;28;20048;-69
2022/07/03 02:30:18;;;;;;;;;;;15.80;99.90;;;;;;4996308;28;19936;-70
2022/07/03 02:32:49;;;;;;;;;;;15.80;99.90;;;;;;4996405;28;19940;-70
2022/07/03 02:35:18;;;;;;;;;;;15.70;99.90;;;;;;4995542;28;19956;-70
2022/07/03 02:37:46;;;;;;;;;;;15.70;99.90;;;;;;4992563;28;20384;-70
2022/07/03 02:40:17;;;;;;;;;;;15.70;99.90;;;;;;4994320;28;19934;-71
2022/07/03 02:42:47;;;;;;;;;;;15.60;99.90;;;;;;4991983;28;19937;-71
2022/07/03 02:45:14;;;;;;;;;;;15.70;99.90;;;;;;4993389;28;19961;-71
2022/07/03 02:47:52;;;;;;;;;;;15.70;99.90;;;;;;4994818;28;20008;-70
2022/07/03 02:50:21;;;;;;;;;;;15.70;99.90;;;;;;4997996;28;19930;-70
2022/07/03 02:52:53;;;;;;;;;;;15.70;99.90;;;;;;4996023;28;20417;-70
2022/07/03 02:55:40;;;;;;;;;;;15.70;99.90;;;;;;4995742;28;19926;-69
2022/07/03 02:58:14;;;;;;;;;;;15.70;99.90;;;;;;4997131;28;19940;-70
2022/07/03 03:00:43;;;;;;;;;;;15.60;99.90;;;;;;4996900;28;20676;-70
2022/07/03 03:03:11;;;;;;;;;;;15.60;99.90;;;;;;4999752;28;19933;-70
2022/07/03 03:05:44;;;;;;;;;;;15.60;99.90;;;;;;4995614;28;20385;-68
2022/07/03 03:08:19;;;;;;;;;;;15.60;99.90;;;;;;4998729;28;20377;-69
2022/07/03 03:10:46;;;;;;;;;;;15.60;99.90;;;;;;4995286;28;19933;-69
2022/07/03 03:13:13;;;;;;;;;;;15.60;99.90;;;;;;4997589;28;20012;-70
2022/07/03 03:15:45;;;;;;;;;;;15.60;99.90;;;;;;4993042;28;20081;-70
2022/07/03 03:18:14;;;;;;;;;;;15.60;99.90;;;;;;4995824;28;19933;-69
2022/07/03 03:20:43;;;;;;;;;;;15.50;99.90;;;;;;4999751;28;19961;-68
2022/07/03 03:23:18;;;;;;;;;;;15.50;99.90;;;;;;5001030;28;19945;-69
2022/07/03 03:25:45;;;;;;;;;;;15.50;99.90;;;;;;4999044;28;19934;-69
2022/07/03 03:28:12;;;;;;;;;;;15.50;99.90;;;;;;5000343;28;20060;-69
2022/07/03 03:30:39;;;;;;;;;;;15.40;99.90;;;;;;5003522;28;19932;-70
2022/07/03 03:33:08;;;;;;;;;;;15.50;99.90;;;;;;5000603;28;22194;-70
2022/07/03 03:35:36;;;;;;;;;;;15.40;99.90;;;;;;5002758;28;19969;-71
2022/07/03 03:38:03;;;;;;;;;;;15.50;99.90;;;;;;5000588;28;19925;-71
2022/07/03 03:40:29;;;;;;;;;;;15.50;99.90;;;;;;5000714;28;20015;-71
2022/07/03 03:42:56;;;;;;;;;;;15.40;99.90;;;;;;4999585;28;20012;-72
2022/07/03 03:45:23;;;;;;;;;;;15.40;99.90;;;;;;4998239;28;20584;-71
2022/07/03 03:47:50;;;;;;;;;;;15.40;99.90;;;;;;4999204;28;19932;-70
2022/07/03 03:50:17;;;;;;;;;;;15.40;99.90;;;;;;4997584;28;20016;-70
2022/07/03 03:52:45;;;;;;;;;;;15.40;99.90;;;;;;4995694;28;20460;-70
2022/07/03 03:55:11;;;;;;;;;;;15.40;99.90;;;;;;4999685;28;20008;-71
2022/07/03 03:57:38;;;;;;;;;;;15.40;99.90;;;;;;5001628;28;19940;-71
2022/07/03 04:00:06;;;;;;;;;;;15.40;99.90;;;;;;4997884;28;19929;-70
2022/07/03 04:02:32;;;;;;;;;;;15.40;99.90;;;;;;4998217;28;20028;-70
2022/07/03 04:04:59;;;;;;;;;;;15.40;99.90;;;;;;4999292;28;20017;-69
2022/07/03 04:07:26;;;;;;;;;;;15.40;99.90;;;;;;4999571;28;20021;-69
2022/07/03 04:09:54;;;;;;;;;;;15.40;99.90;;;;;;5003858;28;19925;-69
2022/07/03 04:12:20;;;;;;;;;;;15.40;99.90;;;;;;4996768;28;19937;-69
2022/07/03 04:14:47;;;;;;;;;;;15.40;99.90;;;;;;5001975;28;19929;-69
2022/07/03 04:17:15;;;;;;;;;;;15.40;99.90;;;;;;5001766;28;20040;-69
2022/07/03 04:19:41;;;;;;;;;;;15.40;99.90;;;;;;5001853;28;20369;-69
2022/07/03 04:22:09;;;;;;;;;;;15.40;99.90;;;;;;4995482;28;20444;-69
2022/07/03 04:24:36;;;;;;;;;;;15.40;99.90;;;;;;4999375;28;19941;-69
2022/07/03 04:27:04;;;;;;;;;;;15.40;99.90;;;;;;4997085;28;20467;-69
2022/07/03 04:29:31;;;;;;;;;;;15.40;99.90;;;;;;5004009;28;19926;-69
2022/07/03 04:31:57;;;;;;;;;;;15.40;99.90;;;;;;5002658;28;20016;-69
2022/07/03 04:34:24;;;;;;;;;;;15.40;99.90;;;;;;5002959;28;20304;-71
2022/07/03 04:36:51;;;;;;;;;;;15.40;99.90;;;;;;5001847;28;19957;-69
2022/07/03 04:39:17;;;;;;;;;;;15.50;99.90;;;;;;4997658;28;20077;-69
2022/07/03 04:41:44;;;;;;;;;;;15.50;99.90;;;;;;4994931;28;20020;-69
2022/07/03 04:44:12;;;;;;;;;;;15.60;99.90;;;;;;4997178;28;19933;-69
2022/07/03 04:46:40;;;;;;;;;;;15.70;99.90;;;;;;4995821;28;20036;-69
2022/07/03 04:49:06;;;;;;;;;;;15.80;99.90;;;;;;5003662;28;19932;-71
2022/07/03 04:51:33;;;;;;;;;;;15.90;99.90;;;;;;5000549;28;19936;-69
2022/07/03 04:54:00;;;;;;;;;;;15.90;99.90;;;;;;4998434;28;19925;-71
2022/07/03 04:56:26;;;;;;;;;;;16.00;99.90;;;;;;4995121;28;20016;-70
2022/07/03 04:58:53;;;;;;;;;;;16.10;99.90;;;;;;4997177;28;20012;-70
2022/07/03 05:01:21;;;;;;;;;;;16.10;99.90;;;;;;4993904;28;20528;-70
2022/07/03 05:03:48;;;;;;;;;;;16.10;99.90;;;;;;4999513;28;20020;-71
2022/07/03 05:06:14;;;;;;;;;;;16.20;99.90;;;;;;4998039;28;20072;-70
2022/07/03 05:08:41;;;;;;;;;;;16.30;99.90;;;;;;5001584;28;19932;-70
2022/07/03 05:11:08;;;;;;;;;;;16.20;99.90;;;;;;4997748;28;20031;-70
2022/07/03 05:13:35;;;;;;;;;;;16.20;99.90;;;;;;4998792;28;19936;-70
2022/07/03 05:16:01;;;;;;;;;;;16.30;99.90;;;;;;5002025;28;20016;-70
2022/07/03 05:18:29;;;;;;;;;;;16.30;99.90;;;;;;5001149;28;19939;-70
2022/07/03 05:20:56;;;;;;;;;;;16.30;99.90;;;;;;4996876;28;19940;-70
2022/07/03 05:23:23;;;;;;;;;;;16.20;99.90;;;;;;4989676;28;19932;-70
2022/07/03 05:25:49;;;;;;;;;;;16.20;99.90;;;;;;4995797;28;20391;-70
2022/07/03 05:28:16;;;;;;;;;;;16.20;99.90;;;;;;4998449;28;20438;-72
2022/07/03 05:30:42;;;;;;;;;;;16.20;99.90;;;;;;4997282;28;20409;-70
2022/07/03 05:33:09;;;;;;;;;;;16.30;99.90;;;;;;4994440;28;20028;-70
2022/07/03 05:35:37;;;;;;;;;;;16.30;99.90;;;;;;4999484;28;20055;-70
2022/07/03 05:38:04;;;;;;;;;;;16.40;99.90;;;;;;4996369;28;20033;-69
2022/07/03 05:40:30;;;;;;;;;;;16.40;99.90;;;;;;5000169;28;20300;-71
2022/07/03 05:42:56;;;;;;;;;;;16.50;99.90;;;;;;4998680;28;19925;-70
2022/07/03 05:45:23;;;;;;;;;;;16.70;99.90;;;;;;4999312;28;19929;-70
2022/07/03 05:47:50;;;;;;;;;;;16.80;99.90;;;;;;4997345;28;20016;-71
2022/07/03 05:50:16;;;;;;;;;;;16.80;99.90;;;;;;4994435;28;19934;-70
2022/07/03 05:52:44;;;;;;;;;;;16.80;99.90;;;;;;4997324;28;20027;-71
2022/07/03 05:55:11;;;;;;;;;;;16.90;99.90;;;;;;4997208;28;20052;-71
2022/07/03 05:57:38;;;;;;;;;;;17.00;99.90;;;;;;4994396;28;19931;-71
2022/07/03 06:00:05;;;;;;;;;;;17.00;99.90;;;;;;4997321;28;20036;-70
2022/07/03 06:02:32;;;;;;;;;;;17.20;99.90;;;;;;4995882;28;19997;-70
2022/07/03 06:04:58;;;;;;;;;;;18.20;99.90;;;;;;4995180;28;20608;-71
2022/07/03 06:07:25;;;;;;;;;;;20.20;99.90;;;;;;4994873;28;19932;-71
2022/07/03 06:09:53;;;;;;;;;;;21.90;93.70;;;;;;4999559;28;19925;-71
2022/07/03 06:12:20;;;;;;;;;;;23.30;90.30;;;;;;4992234;28;20020;-71
2022/07/03 06:14:46;;;;;;;;;;;24.70;75.40;;;;;;4997906;28;19929;-70
2022/07/03 06:17:13;;;;;;;;;;;25.60;63.60;;;;;;4996675;28;20020;-71
2022/07/03 06:19:40;;;;;;;;;;;26.00;57.30;;;;;;4997782;28;20020;-71
2022/07/03 06:22:06;;;;;;;;;;;26.10;53.10;;;;;;4999481;28;19925;-70
2022/07/03 06:24:33;;;;;;;;;;;26.50;52.10;;;;;;5001944;28;19968;-70
2022/07/03 06:27:01;;;;;;;;;;;26.90;48.60;;;;;;4996912;28;20048;-71
2022/07/03 06:29:28;;;;;;;;;;;27.40;44.70;;;;;;4997778;28;20064;-71
2022/07/03 06:31:55;;;;;;;;;;;27.70;42.70;;;;;;4998001;28;20347;-71
2022/07/03 06:34:21;;;;;;;;;;;28.00;40.60;;;;;;5000002;28;19934;-71
2022/07/03 06:36:48;;;;;;;;;;;28.00;38.70;;;;;;5000179;28;20020;-71
2022/07/03 06:39:15;;;;;;;;;;;27.50;38.10;;;;;;4991951;28;20003;-71
2022/07/03 06:41:41;;;;;;;;;;;27.70;38.10;;;;;;4994513;28;20391;-71
2022/07/03 06:44:09;;;;;;;;;;;27.90;36.90;;;;;;4996012;28;19932;-70
2022/07/03 06:46:36;;;;;;;;;;;27.60;36.90;;;;;;4992768;28;20021;-70
2022/07/03 06:49:03;;;;;;;;;;;27.70;36.40;;;;;;4992154;28;20020;-71
2022/07/03 06:51:29;;;;;;;;;;;28.40;35.10;;;;;;4996025;28;19968;-74
2022/07/03 06:53:56;;;;;;;;;;;27.80;35.30;;;;;;4997617;28;20033;-74
2022/07/03 06:56:23;;;;;;;;;;;28.40;34.60;;;;;;4997531;28;19957;-74
2022/07/03 06:58:50;;;;;;;;;;;27.90;34.50;;;;;;4996453;28;19926;-74
2022/07/03 07:01:18;;;;;;;;;;;27.70;34.10;;;;;;4998729;28;20367;-74
2022/07/03 07:03:44;;;;;;;;;;;27.90;35.10;;;;;;4998682;28;19969;-74
2022/07/03 07:06:11;;;;;;;;;;;28.00;34.50;;;;;;4996765;28;20668;-74
2022/07/03 07:08:38;;;;;;;;;;;28.00;33.50;;;;;;4998131;28;19930;-74
2022/07/03 07:11:04;;;;;;;;;;;28.90;31.40;;;;;;5000033;28;19943;-74
2022/07/03 07:13:31;;;;;;;;;;;29.20;30.80;;;;;;4992507;28;20032;-73
2022/07/03 07:15:58;;;;;;;;;;;30.00;28.70;;;;;;4996898;28;20399;-75
2022/07/03 07:18:26;;;;;;;;;;;29.70;27.60;;;;;;4996739;28;20020;-74
2022/07/03 07:20:52;;;;;;;;;;;28.20;28.90;;;;;;4993981;28;19957;-74
2022/07/03 07:23:19;;;;;;;;;;;27.00;31.00;;;;;;4994987;28;20351;-74
2022/07/03 07:25:46;;;;;;;;;;;26.70;31.50;;;;;;5003374;28;19965;-74
2022/07/03 07:28:12;;;;;;;;;;;26.30;32.60;;;;;;5003977;28;19926;-74
2022/07/03 07:30:40;;;;;;;;;;;26.00;33.60;;;;;;5003456;28;19929;-74
2022/07/03 07:33:07;;;;;;;;;;;26.50;32.20;;;;;;4996870;28;20187;-74
2022/07/03 07:35:35;;;;;;;;;;;25.80;32.90;;;;;;5002067;28;19925;-72
2022/07/03 07:38:02;;;;;;;;;;;26.00;33.00;;;;;;5000779;28;20365;-76
2022/07/03 07:40:28;;;;;;;;;;;25.80;33.20;;;;;;5001602;28;19996;-77
2022/07/03 07:42:55;;;;;;;;;;;25.20;34.60;;;;;;5002166;28;20186;-77
2022/07/03 07:45:22;;;;;;;;;;;24.20;37.00;;;;;;5009061;28;19973;-77
2022/07/03 07:47:48;;;;;;;;;;;23.90;38.00;;;;;;5004566;28;19932;-76
2022/07/03 07:50:15;;;;;;;;;;;24.00;38.70;;;;;;5000950;28;19997;-74
2022/07/03 07:52:43;;;;;;;;;;;24.10;38.80;;;;;;5000851;28;20024;-76
2022/07/03 07:55:10;;;;;;;;;;;24.60;38.40;;;;;;5006122;28;20005;-75
2022/07/03 07:57:37;;;;;;;;;;;24.80;37.80;;;;;;5005635;28;19933;-76
2022/07/03 08:00:08;;;;;;;;;;;24.60;38.10;;;;;;5001768;28;19930;-77
2022/07/03 08:05:37;;;;;;;;;;;26.30;35.70;;;;;;4999907;28;20407;-78
2022/07/03 08:08:07;;;;;;;;;;;27.70;33.30;;;;;;4996059;28;19933;-77
2022/07/03 08:10:37;;;;;;;;;;;28.90;29.60;;;;;;4995807;28;20016;-77
2022/07/03 08:13:04;;;;;;;;;;;29.40;28.20;;;;;;5006693;28;19933;-77
2022/07/03 08:15:30;;;;;;;;;;;29.90;26.80;;;;;;5007990;28;20403;-76
2022/07/03 08:17:57;;;;;;;;;;;30.40;25.20;;;;;;5009889;28;20380;-76
2022/07/03 08:20:24;;;;;;;;;;;29.80;25.60;;;;;;5002150;28;19960;-77
2022/07/03 08:22:51;;;;;;;;;;;30.00;25.30;;;;;;5005837;28;20680;-77
2022/07/03 08:25:19;;;;;;;;;;;29.80;24.00;;;;;;5002504;28;19961;-76
2022/07/03 08:27:46;;;;;;;;;;;29.50;24.30;;;;;;4995422;28;19935;-78
2022/07/03 08:30:14;;;;;;;;;;;29.60;24.10;;;;;;5003767;28;19929;-78
2022/07/03 08:32:41;;;;;;;;;;;28.70;24.60;;;;;;5002993;28;19930;-77
2022/07/03 08:35:08;;;;;;;;;;;27.60;27.50;;;;;;5003655;28;19926;-75
2022/07/03 08:37:34;;;;;;;;;;;28.60;25.30;;;;;;5000229;28;19973;-75
2022/07/03 08:40:01;;;;;;;;;;;28.30;25.00;;;;;;5010024;28;19926;-74
2022/07/03 08:42:31;;;;;;;;;;;28.20;24.80;;;;;;5008767;28;19976;-74
2022/07/03 08:44:58;;;;;;;;;;;27.50;25.10;;;;;;4993840;28;20367;-75
2022/07/03 08:47:27;;;;;;;;;;;26.30;26.80;;;;;;4996019;28;19945;-74
2022/07/03 08:49:54;;;;;;;;;;;27.40;26.10;;;;;;4997933;28;19925;-75
2022/07/03 08:52:21;;;;;;;;;;;28.40;24.50;;;;;;5004308;28;20009;-75
2022/07/03 08:54:48;;;;;;;;;;;29.30;23.60;;;;;;4999749;28;19969;-74
2022/07/03 08:57:16;;;;;;;;;;;28.00;24.70;;;;;;5000985;28;20492;-75
2022/07/03 08:59:46;;;;;;;;;;;26.80;26.20;;;;;;5001181;28;20050;-76
2022/07/03 09:02:13;;;;;;;;;;;27.70;26.00;;;;;;5003047;28;19925;-76
2022/07/03 09:04:40;;;;;;;;;;;27.90;24.10;;;;;;5001711;28;20377;-76
2022/07/03 09:07:07;;;;;;;;;;;26.70;25.40;;;;;;5003207;28;20020;-74
2022/07/03 09:09:34;;;;;;;;;;;25.80;28.30;;;;;;4995756;28;20396;-73
2022/07/03 09:12:01;;;;;;;;;;;26.20;27.40;;;;;;4994113;28;19933;-73
2022/07/03 09:14:27;;;;;;;;;;;27.30;25.20;;;;;;5003936;28;19931;-74
2022/07/03 09:16:55;;;;;;;;;;;26.90;25.50;;;;;;4997144;28;19926;-73
2022/07/03 09:19:37;;;;;;;;;;;25.90;26.90;;;;;;5006456;28;19975;-74
2022/07/03 09:22:04;;;;;;;;;;;26.80;27.10;;;;;;4994110;28;19932;-72
2022/07/03 09:24:33;;;;;;;;;;;26.70;26.10;;;;;;5004533;28;20028;-73
2022/07/03 09:27:00;;;;;;;;;;;25.90;27.50;;;;;;4995221;28;20360;-75
2022/07/03 09:29:27;;;;;;;;;;;25.10;28.30;;;;;;4997806;28;19980;-74
2022/07/03 09:31:58;;;;;;;;;;;24.40;29.40;;;;;;4996691;28;22040;-74
2022/07/03 09:34:26;;;;;;;;;;;24.20;30.90;;;;;;4987840;28;20442;-74
2022/07/03 09:36:53;;;;;;;;;;;25.20;30.30;;;;;;4994133;28;19925;-74
2022/07/03 09:39:23;;;;;;;;;;;26.00;29.10;;;;;;4994361;28;20484;-75
2022/07/03 09:41:53;;;;;;;;;;;25.70;28.50;;;;;;4990106;28;20365;-69
2022/07/03 09:44:28;;;;;;;;;;;25.30;29.20;;;;;;4995273;28;19926;-70
2022/07/03 09:47:07;;;;;;;;;;;25.00;29.50;;;;;;4993732;28;20413;-75
2022/07/03 09:49:45;;;;;;;;;;;24.30;29.90;;;;;;5000153;28;20012;-75
2022/07/03 09:52:26;;;;;;;;;;;23.60;30.90;;;;;;5000095;28;20307;-75
2022/07/03 09:54:52;;;;;;;;;;;24.40;31.50;;;;;;4995295;28;19969;-74
2022/07/03 09:57:19;;;;;;;;;;;25.80;28.90;;;;;;4994381;28;20017;-74
2022/07/03 09:59:46;;;;;;;;;;;26.90;25.30;;;;;;4992129;28;19929;-75
2022/07/03 10:02:14;;;;;;;;;;;27.70;23.60;;;;;;4994936;28;19980;-74
2022/07/03 10:04:41;;;;;;;;;;;29.00;22.80;;;;;;4993115;28;19926;-74
2022/07/03 10:07:07;;;;;;;;;;;28.50;21.50;;;;;;5004599;28;20456;-74
2022/07/03 10:09:35;;;;;;;;;;;27.40;21.70;;;;;;5004153;28;19929;-75
2022/07/03 10:12:02;;;;;;;;;;;27.10;22.60;;;;;;5002988;28;19925;-73
2022/07/03 10:14:30;;;;;;;;;;;27.80;21.50;;;;;;4999819;28;19926;-73
2022/07/03 10:16:57;;;;;;;;;;;28.10;21.20;;;;;;5002250;28;19933;-74
2022/07/03 10:19:27;;;;;;;;;;;27.40;22.40;;;;;;5010699;28;19925;-75
2022/07/03 10:21:55;;;;;;;;;;;26.70;22.80;;;;;;5001803;28;20020;-74
2022/07/03 10:24:22;;;;;;;;;;;26.20;25.10;;;;;;5007088;28;19991;-74
2022/07/03 10:26:50;;;;;;;;;;;26.10;25.30;;;;;;5001789;28;20410;-74
2022/07/03 10:29:17;;;;;;;;;;;25.90;26.30;;;;;;5000573;28;20024;-72
2022/07/03 10:31:47;;;;;;;;;;;25.70;26.20;;;;;;5001156;28;19926;-74
2022/07/03 10:34:18;;;;;;;;;;;25.30;25.00;;;;;;4991820;28;20012;-74
2022/07/03 10:36:47;;;;;;;;;;;25.00;26.90;;;;;;4995393;28;19926;-73
2022/07/03 10:39:19;;;;;;;;;;;25.00;26.40;;;;;;5000453;28;20020;-73
2022/07/03 10:44:48;;;;;;;;;;;24.50;26.70;;;;;;4996284;28;20404;-73
2022/07/03 10:47:33;;;;;;;;;;;24.20;27.70;;;;;;4994644;28;20016;-72
2022/07/03 10:50:03;;;;;;;;;;;24.10;27.80;;;;;;4991101;28;20025;-75
2022/07/03 10:52:31;;;;;;;;;;;23.70;29.00;;;;;;4993592;28;19961;-74
2022/07/03 10:54:59;;;;;;;;;;;23.60;29.00;;;;;;4991594;28;19980;-74
2022/07/03 10:57:25;;;;;;;;;;;23.70;28.90;;;;;;5009902;28;19925;-74
2022/07/03 11:00:02;;;;;;;;;;;23.80;29.10;;;;;;4991863;28;19969;-74
2022/07/03 11:02:32;;;;;;;;;;;24.10;28.70;;;;;;4997281;28;20329;-74
2022/07/03 11:05:12;;;;;;;;;;;24.20;27.10;;;;;;5004796;28;20373;-73
2022/07/03 11:07:45;;;;;;;;;;;23.90;26.20;;;;;;4991930;28;19961;-73
2022/07/03 11:10:30;;;;;;;;;;;23.80;26.50;;;;;;4992860;28;20316;-75
2022/07/03 11:12:57;;;;;;;;;;;23.70;26.40;;;;;;4992521;28;20012;-74
2022/07/03 11:15:28;;;;;;;;;;;23.80;26.40;;;;;;4993824;28;19932;-75
2022/07/03 11:18:12;;;;;;;;;;;23.80;27.50;;;;;;4998136;28;19926;-75
2022/07/03 11:20:55;;;;;;;;;;;24.20;26.90;;;;;;4996015;28;19925;-75
2022/07/03 11:23:29;;;;;;;;;;;24.50;26.20;;;;;;4991628;28;19969;-75
2022/07/03 11:25:57;;;;;;;;;;;24.50;25.40;;;;;;4998516;28;19925;-75
2022/07/03 11:28:48;;;;;;;;;;;24.80;25.80;;;;;;5002472;28;20266;-75
2022/07/03 11:31:18;;;;;;;;;;;24.90;24.90;;;;;;4996137;28;19925;-75
2022/07/03 11:33:45;;;;;;;;;;;24.30;26.40;;;;;;5000326;28;19926;-75
2022/07/03 11:36:12;;;;;;;;;;;24.60;27.00;;;;;;5000091;28;20036;-75
2022/07/03 11:38:40;;;;;;;;;;;24.30;26.90;;;;;;5004417;28;19932;-75
2022/07/03 11:41:08;;;;;;;;;;;23.80;27.70;;;;;;5005275;28;19961;-73
2022/07/03 11:43:35;;;;;;;;;;;23.60;27.70;;;;;;5004628;28;20455;-75
2022/07/03 11:46:03;;;;;;;;;;;23.70;28.00;;;;;;5002052;28;19932;-75
2022/07/03 11:48:30;;;;;;;;;;;24.20;27.20;;;;;;4994590;28;20017;-74
2022/07/03 11:51:01;;;;;;;;;;;24.30;27.10;;;;;;5008740;28;19926;-75
2022/07/03 11:53:29;;;;;;;;;;;24.60;27.10;;;;;;5004561;28;19984;-75
2022/07/03 11:55:58;;;;;;;;;;;24.60;26.20;;;;;;5002024;28;19926;-75
2022/07/03 11:58:26;;;;;;;;;;;24.50;26.20;;;;;;5006364;28;20448;-75
2022/07/03 12:00:53;;;;;;;;;;;24.40;25.20;;;;;;5001940;28;19926;-76
2022/07/03 12:03:24;;;;;;;;;;;24.00;25.10;;;;;;4994288;28;20415;-75
2022/07/03 12:05:51;;;;;;;;;;;24.30;25.90;;;;;;4996015;28;19926;-74
2022/07/03 12:08:22;;;;;;;;;;;24.50;25.10;;;;;;5003453;28;19926;-74
2022/07/03 12:10:49;;;;;;;;;;;24.80;25.30;;;;;;5009170;28;19926;-74
2022/07/03 12:13:23;;;;;;;;;;;24.90;24.80;;;;;;5007384;28;20000;-76
2022/07/03 12:15:50;;;;;;;;;;;24.80;24.50;;;;;;5000833;28;19926;-74
2022/07/03 12:18:16;;;;;;;;;;;24.80;24.60;;;;;;5007864;28;19976;-75
2022/07/03 12:20:43;;;;;;;;;;;24.80;23.90;;;;;;5011310;28;19932;-74
2022/07/03 12:23:10;;;;;;;;;;;24.50;23.60;;;;;;5006010;28;19986;-74
2022/07/03 12:25:40;;;;;;;;;;;24.40;23.70;;;;;;5008176;28;20388;-75
2022/07/03 12:28:07;;;;;;;;;;;24.40;25.30;;;;;;5004043;28;19926;-75
2022/07/03 12:30:36;;;;;;;;;;;24.00;26.70;;;;;;5013162;28;19932;-74
2022/07/03 12:33:03;;;;;;;;;;;23.50;27.00;;;;;;5008412;28;19926;-75
2022/07/03 12:35:30;;;;;;;;;;;23.40;27.00;;;;;;5008885;28;20380;-74
2022/07/03 12:37:57;;;;;;;;;;;23.30;27.30;;;;;;5006375;28;19995;-74
2022/07/03 12:40:24;;;;;;;;;;;23.00;27.20;;;;;;5007717;28;19929;-75
2022/07/03 12:42:51;;;;;;;;;;;23.00;27.40;;;;;;5009244;28;22722;-74
2022/07/03 12:45:19;;;;;;;;;;;23.10;26.90;;;;;;5007032;28;20052;-75
2022/07/03 12:47:57;;;;;;;;;;;23.10;26.90;;;;;;5008406;28;19980;-75
2022/07/03 12:50:23;;;;;;;;;;;23.30;26.60;;;;;;5005608;28;19933;-75
2022/07/03 12:52:51;;;;;;;;;;;23.70;27.00;;;;;;4997614;28;19961;-75
2022/07/03 12:55:23;;;;;;;;;;;24.30;25.60;;;;;;5010550;28;19930;-75
2022/07/03 13:00:43;;;;;;;;;;;24.40;24.20;;;;;;4998195;28;20365;-75
2022/07/03 13:03:26;;;;;;;;;;;24.40;24.30;;;;;;4997618;28;19932;-75
2022/07/03 13:05:53;;;;;;;;;;;24.50;23.70;;;;;;5008676;28;20051;-76
2022/07/03 13:08:19;;;;;;;;;;;24.20;21.80;;;;;;5010996;28;20008;-75
2022/07/03 13:10:54;;;;;;;;;;;24.30;22.60;;;;;;5007455;28;20009;-75
2022/07/03 13:13:21;;;;;;;;;;;24.30;22.10;;;;;;5009811;28;19934;-76
2022/07/03 13:15:48;;;;;;;;;;;24.20;22.70;;;;;;5005532;28;20369;-76
2022/07/03 13:18:16;;;;;;;;;;;24.50;22.30;;;;;;4998064;28;19977;-76
2022/07/03 13:20:43;;;;;;;;;;;24.20;22.50;;;;;;5005143;28;19929;-76
2022/07/03 13:23:10;;;;;;;;;;;24.40;22.60;;;;;;5001030;28;19932;-77
2022/07/03 13:25:39;;;;;;;;;;;24.60;22.30;;;;;;4994674;28;20420;-76
2022/07/03 13:28:06;;;;;;;;;;;24.80;23.90;;;;;;4992727;28;19950;-77
2022/07/03 13:30:33;;;;;;;;;;;24.80;23.50;;;;;;4994018;28;20362;-76
2022/07/03 13:33:00;;;;;;;;;;;24.60;23.40;;;;;;4996471;28;20450;-76
2022/07/03 13:35:29;;;;;;;;;;;24.40;23.60;;;;;;5006724;28;20016;-76
2022/07/03 13:37:55;;;;;;;;;;;24.30;23.60;;;;;;5009870;28;20028;-76
2022/07/03 13:40:22;;;;;;;;;;;24.10;23.50;;;;;;5009196;28;20016;-76
2022/07/03 13:42:49;;;;;;;;;;;24.20;23.70;;;;;;5008311;28;20005;-75
2022/07/03 13:45:16;;;;;;;;;;;23.50;23.40;;;;;;5003097;28;19929;-76
2022/07/03 13:47:43;;;;;;;;;;;23.00;24.80;;;;;;5006481;28;19926;-76
2022/07/03 13:50:10;;;;;;;;;;;22.90;25.30;;;;;;5001467;28;20015;-76
2022/07/03 13:52:38;;;;;;;;;;;22.80;25.70;;;;;;5006675;28;19973;-76
2022/07/03 13:55:05;;;;;;;;;;;23.40;25.00;;;;;;5000563;28;20313;-76
2022/07/03 13:57:32;;;;;;;;;;;23.80;24.40;;;;;;5003033;28;20013;-78
2022/07/03 13:59:59;;;;;;;;;;;24.00;24.00;;;;;;4993133;28;19925;-75
2022/07/03 14:02:26;;;;;;;;;;;23.90;23.00;;;;;;5007287;28;20458;-75
2022/07/03 14:04:53;;;;;;;;;;;23.80;22.60;;;;;;5004412;28;20325;-76
2022/07/03 14:07:20;;;;;;;;;;;24.00;22.00;;;;;;5007499;28;20308;-76
2022/07/03 14:09:48;;;;;;;;;;;24.00;21.30;;;;;;5009633;28;19925;-76
2022/07/03 14:12:14;;;;;;;;;;;24.40;21.60;;;;;;4994937;28;19945;-77
2022/07/03 14:14:41;;;;;;;;;;;24.80;20.90;;;;;;5006593;28;19969;-78
2022/07/03 14:17:08;;;;;;;;;;;24.80;20.50;;;;;;5005863;28;20060;-78
2022/07/03 14:19:35;;;;;;;;;;;24.70;21.00;;;;;;4993302;28;20045;-78
2022/07/03 14:22:01;;;;;;;;;;;24.70;21.60;;;;;;5001902;28;19996;-77
2022/07/03 14:24:30;;;;;;;;;;;24.70;21.70;;;;;;4992022;28;20012;-77
2022/07/03 14:32:32;;;;;;;;;;;24.10;23.40;;;;;;4974038;28;20330;-76
2022/07/03 14:35:00;;;;;;;;;;;23.70;22.40;;;;;;4996892;28;19926;-76
2022/07/03 14:37:26;;;;;;;;;;;23.60;22.20;;;;;;4998010;28;19949;-76